sensor_id;sensor_type;location;lat;lon;timestamp;P1;durP1;ratioP1;P2;durP2;ratioP2
84903;SDS011;75168;52.096;5.214;2024-02-16T00:02:16;2.75;;;1.10;;
84903;SDS011;75168;52.096;5.214;2024-02-16T00:04:41;2.40;;;0.80;;
84903;SDS011;75168;52.096;5.214;2024-02-16T00:07:06;2.63;;;1.35;;
84903;SDS011;75168;52.096;5.214;2024-02-16T00:09:32;3.08;;;0.90;;
84903;SDS011;75168;52.096;5.214;2024-02-16T00:11:58;2.30;;;1.52;;
84903;SDS011;75168;52.096;5.214;2024-02-16T00:14:23;2.50;;;1.27;;
84903;SDS011;75168;52.096;5.214;2024-02-16T00:16:49;1.75;;;0.70;;
84903;SDS011;75168;52.096;5.214;2024-02-16T00:19:14;3.05;;;0.85;;
84903;SDS011;75168;52.096;5.214;2024-02-16T00:21:40;3.05;;;1.48;;
84903;SDS011;75168;52.096;5.214;2024-02-16T00:24:07;2.10;;;1.52;;
84903;SDS011;75168;52.096;5.214;2024-02-16T00:26:33;2.50;;;1.45;;
84903;SDS011;75168;52.096;5.214;2024-02-16T00:28:58;1.95;;;1.38;;
84903;SDS011;75168;52.096;5.214;2024-02-16T00:31:24;2.15;;;0.88;;
84903;SDS011;75168;52.096;5.214;2024-02-16T00:33:49;2.70;;;1.73;;
84903;SDS011;75168;52.096;5.214;2024-02-16T00:36:14;2.50;;;0.68;;
84903;SDS011;75168;52.096;5.214;2024-02-16T00:38:40;3.88;;;1.13;;
84903;SDS011;75168;52.096;5.214;2024-02-16T00:41:05;2.88;;;1.10;;
84903;SDS011;75168;52.096;5.214;2024-02-16T00:43:32;2.92;;;1.30;;
84903;SDS011;75168;52.096;5.214;2024-02-16T00:45:57;2.33;;;1.02;;
84903;SDS011;75168;52.096;5.214;2024-02-16T00:48:23;2.67;;;0.93;;
84903;SDS011;75168;52.096;5.214;2024-02-16T00:50:49;2.33;;;1.00;;
84903;SDS011;75168;52.096;5.214;2024-02-16T00:53:14;2.70;;;0.82;;
84903;SDS011;75168;52.096;5.214;2024-02-16T00:55:40;2.05;;;1.00;;
84903;SDS011;75168;52.096;5.214;2024-02-16T00:58:06;3.03;;;0.95;;
84903;SDS011;75168;52.096;5.214;2024-02-16T01:00:32;2.60;;;1.45;;
84903;SDS011;75168;52.096;5.214;2024-02-16T01:02:57;2.42;;;1.50;;
84903;SDS011;75168;52.096;5.214;2024-02-16T01:05:23;2.50;;;0.70;;
84903;SDS011;75168;52.096;5.214;2024-02-16T01:07:48;1.80;;;0.80;;
84903;SDS011;75168;52.096;5.214;2024-02-16T01:10:14;2.63;;;1.10;;
84903;SDS011;75168;52.096;5.214;2024-02-16T01:12:39;1.80;;;0.77;;
84903;SDS011;75168;52.096;5.214;2024-02-16T01:15:05;1.58;;;0.82;;
84903;SDS011;75168;52.096;5.214;2024-02-16T01:17:31;3.30;;;1.00;;
84903;SDS011;75168;52.096;5.214;2024-02-16T01:19:57;1.92;;;0.80;;
84903;SDS011;75168;52.096;5.214;2024-02-16T01:22:23;1.77;;;0.77;;
84903;SDS011;75168;52.096;5.214;2024-02-16T01:24:49;1.65;;;0.90;;
84903;SDS011;75168;52.096;5.214;2024-02-16T01:27:15;1.95;;;0.80;;
84903;SDS011;75168;52.096;5.214;2024-02-16T01:29:41;2.70;;;1.42;;
84903;SDS011;75168;52.096;5.214;2024-02-16T01:32:06;2.67;;;0.80;;
84903;SDS011;75168;52.096;5.214;2024-02-16T01:34:32;3.50;;;1.40;;
84903;SDS011;75168;52.096;5.214;2024-02-16T01:36:57;3.00;;;1.63;;
84903;SDS011;75168;52.096;5.214;2024-02-16T01:39:23;2.85;;;0.90;;
84903;SDS011;75168;52.096;5.214;2024-02-16T01:41:49;2.60;;;1.35;;
84903;SDS011;75168;52.096;5.214;2024-02-16T01:44:14;2.42;;;1.38;;
84903;SDS011;75168;52.096;5.214;2024-02-16T01:46:41;2.33;;;1.60;;
84903;SDS011;75168;52.096;5.214;2024-02-16T01:49:07;2.97;;;0.80;;
84903;SDS011;75168;52.096;5.214;2024-02-16T01:51:33;2.20;;;1.50;;
84903;SDS011;75168;52.096;5.214;2024-02-16T01:54:00;2.90;;;1.92;;
84903;SDS011;75168;52.096;5.214;2024-02-16T01:56:26;2.08;;;0.77;;
84903;SDS011;75168;52.096;5.214;2024-02-16T01:58:52;1.83;;;0.85;;
84903;SDS011;75168;52.096;5.214;2024-02-16T02:01:18;5.25;;;1.58;;
84903;SDS011;75168;52.096;5.214;2024-02-16T02:03:44;1.83;;;0.85;;
84903;SDS011;75168;52.096;5.214;2024-02-16T02:06:09;2.47;;;1.25;;
84903;SDS011;75168;52.096;5.214;2024-02-16T02:08:35;1.77;;;0.82;;
84903;SDS011;75168;52.096;5.214;2024-02-16T02:11:00;3.83;;;1.55;;
84903;SDS011;75168;52.096;5.214;2024-02-16T02:13:27;2.53;;;1.45;;
84903;SDS011;75168;52.096;5.214;2024-02-16T02:15:53;2.40;;;1.45;;
84903;SDS011;75168;52.096;5.214;2024-02-16T02:18:19;2.45;;;1.70;;
84903;SDS011;75168;52.096;5.214;2024-02-16T02:20:44;3.17;;;1.35;;
84903;SDS011;75168;52.096;5.214;2024-02-16T02:23:09;1.65;;;0.80;;
84903;SDS011;75168;52.096;5.214;2024-02-16T02:25:35;3.63;;;1.67;;
84903;SDS011;75168;52.096;5.214;2024-02-16T02:28:01;2.08;;;0.85;;
84903;SDS011;75168;52.096;5.214;2024-02-16T02:30:28;2.35;;;1.40;;
84903;SDS011;75168;52.096;5.214;2024-02-16T02:32:53;2.53;;;0.88;;
84903;SDS011;75168;52.096;5.214;2024-02-16T02:35:19;2.58;;;0.70;;
84903;SDS011;75168;52.096;5.214;2024-02-16T02:37:44;2.55;;;1.40;;
84903;SDS011;75168;52.096;5.214;2024-02-16T02:40:10;2.00;;;0.88;;
84903;SDS011;75168;52.096;5.214;2024-02-16T02:42:35;2.60;;;0.90;;
84903;SDS011;75168;52.096;5.214;2024-02-16T02:45:04;3.28;;;0.90;;
84903;SDS011;75168;52.096;5.214;2024-02-16T02:47:31;1.98;;;0.90;;
84903;SDS011;75168;52.096;5.214;2024-02-16T02:49:57;3.53;;;1.45;;
84903;SDS011;75168;52.096;5.214;2024-02-16T02:52:22;1.67;;;0.88;;
84903;SDS011;75168;52.096;5.214;2024-02-16T02:54:48;1.73;;;0.90;;
84903;SDS011;75168;52.096;5.214;2024-02-16T02:57:13;2.58;;;0.80;;
84903;SDS011;75168;52.096;5.214;2024-02-16T02:59:38;2.65;;;1.60;;
84903;SDS011;75168;52.096;5.214;2024-02-16T03:02:04;2.22;;;1.50;;
84903;SDS011;75168;52.096;5.214;2024-02-16T03:04:29;2.97;;;0.88;;
84903;SDS011;75168;52.096;5.214;2024-02-16T03:06:55;1.80;;;0.80;;
84903;SDS011;75168;52.096;5.214;2024-02-16T03:09:20;2.45;;;1.63;;
84903;SDS011;75168;52.096;5.214;2024-02-16T03:11:45;3.13;;;0.73;;
84903;SDS011;75168;52.096;5.214;2024-02-16T03:14:11;3.05;;;1.83;;
84903;SDS011;75168;52.096;5.214;2024-02-16T03:16:36;2.28;;;1.40;;
84903;SDS011;75168;52.096;5.214;2024-02-16T03:19:03;1.95;;;1.38;;
84903;SDS011;75168;52.096;5.214;2024-02-16T03:23:57;2.15;;;1.08;;
84903;SDS011;75168;52.096;5.214;2024-02-16T03:26:23;1.73;;;0.70;;
84903;SDS011;75168;52.096;5.214;2024-02-16T03:28:48;2.15;;;0.95;;
84903;SDS011;75168;52.096;5.214;2024-02-16T03:31:15;2.20;;;1.00;;
84903;SDS011;75168;52.096;5.214;2024-02-16T03:33:41;2.00;;;0.90;;
84903;SDS011;75168;52.096;5.214;2024-02-16T03:36:07;2.40;;;1.42;;
84903;SDS011;75168;52.096;5.214;2024-02-16T03:38:33;2.08;;;0.90;;
84903;SDS011;75168;52.096;5.214;2024-02-16T03:40:59;1.67;;;0.70;;
84903;SDS011;75168;52.096;5.214;2024-02-16T03:43:24;2.10;;;1.48;;
84903;SDS011;75168;52.096;5.214;2024-02-16T03:45:50;1.80;;;1.10;;
84903;SDS011;75168;52.096;5.214;2024-02-16T03:48:15;3.28;;;1.40;;
84903;SDS011;75168;52.096;5.214;2024-02-16T03:50:41;1.85;;;0.80;;
84903;SDS011;75168;52.096;5.214;2024-02-16T03:53:06;1.92;;;0.80;;
84903;SDS011;75168;52.096;5.214;2024-02-16T03:55:31;2.58;;;1.60;;
84903;SDS011;75168;52.096;5.214;2024-02-16T03:58:01;2.40;;;0.82;;
84903;SDS011;75168;52.096;5.214;2024-02-16T04:00:27;1.85;;;1.20;;
84903;SDS011;75168;52.096;5.214;2024-02-16T04:02:53;2.13;;;1.45;;
84903;SDS011;75168;52.096;5.214;2024-02-16T04:05:18;1.67;;;0.75;;
84903;SDS011;75168;52.096;5.214;2024-02-16T04:07:44;2.00;;;0.90;;
84903;SDS011;75168;52.096;5.214;2024-02-16T04:10:09;2.47;;;1.60;;
84903;SDS011;75168;52.096;5.214;2024-02-16T04:12:35;2.67;;;1.65;;
84903;SDS011;75168;52.096;5.214;2024-02-16T04:15:01;2.17;;;1.88;;
84903;SDS011;75168;52.096;5.214;2024-02-16T04:17:27;2.10;;;0.90;;
84903;SDS011;75168;52.096;5.214;2024-02-16T04:19:52;2.13;;;1.67;;
84903;SDS011;75168;52.096;5.214;2024-02-16T04:22:17;1.73;;;1.23;;
84903;SDS011;75168;52.096;5.214;2024-02-16T04:24:43;2.63;;;1.58;;
84903;SDS011;75168;52.096;5.214;2024-02-16T04:27:08;1.38;;;0.60;;
84903;SDS011;75168;52.096;5.214;2024-02-16T04:29:33;1.85;;;0.88;;
84903;SDS011;75168;52.096;5.214;2024-02-16T04:31:59;2.03;;;1.48;;
84903;SDS011;75168;52.096;5.214;2024-02-16T04:34:24;2.53;;;1.10;;
84903;SDS011;75168;52.096;5.214;2024-02-16T04:36:50;2.00;;;1.60;;
84903;SDS011;75168;52.096;5.214;2024-02-16T04:39:15;2.22;;;1.48;;
84903;SDS011;75168;52.096;5.214;2024-02-16T04:41:42;1.75;;;0.93;;
84903;SDS011;75168;52.096;5.214;2024-02-16T04:44:07;1.52;;;0.85;;
84903;SDS011;75168;52.096;5.214;2024-02-16T04:46:33;2.00;;;1.52;;
84903;SDS011;75168;52.096;5.214;2024-02-16T04:48:58;2.15;;;1.45;;
84903;SDS011;75168;52.096;5.214;2024-02-16T04:51:24;2.20;;;0.90;;
84903;SDS011;75168;52.096;5.214;2024-02-16T04:53:49;2.28;;;0.90;;
84903;SDS011;75168;52.096;5.214;2024-02-16T04:56:14;1.73;;;0.85;;
84903;SDS011;75168;52.096;5.214;2024-02-16T04:58:41;2.33;;;0.82;;
84903;SDS011;75168;52.096;5.214;2024-02-16T05:01:07;3.17;;;1.60;;
84903;SDS011;75168;52.096;5.214;2024-02-16T05:03:32;1.92;;;1.23;;
84903;SDS011;75168;52.096;5.214;2024-02-16T05:05:58;1.67;;;0.80;;
84903;SDS011;75168;52.096;5.214;2024-02-16T05:08:25;2.00;;;0.80;;
84903;SDS011;75168;52.096;5.214;2024-02-16T05:10:50;2.53;;;1.23;;
84903;SDS011;75168;52.096;5.214;2024-02-16T05:13:16;2.55;;;1.42;;
84903;SDS011;75168;52.096;5.214;2024-02-16T05:15:42;2.78;;;0.93;;
84903;SDS011;75168;52.096;5.214;2024-02-16T05:18:08;2.17;;;1.20;;
84903;SDS011;75168;52.096;5.214;2024-02-16T05:20:36;2.33;;;1.00;;
84903;SDS011;75168;52.096;5.214;2024-02-16T05:23:01;2.40;;;0.95;;
84903;SDS011;75168;52.096;5.214;2024-02-16T05:25:27;2.20;;;1.00;;
84903;SDS011;75168;52.096;5.214;2024-02-16T05:27:52;2.33;;;1.50;;
84903;SDS011;75168;52.096;5.214;2024-02-16T05:30:17;2.38;;;1.70;;
84903;SDS011;75168;52.096;5.214;2024-02-16T05:32:44;2.20;;;1.23;;
84903;SDS011;75168;52.096;5.214;2024-02-16T05:37:43;1.60;;;0.70;;
84903;SDS011;75168;52.096;5.214;2024-02-16T05:40:13;1.98;;;1.17;;
84903;SDS011;75168;52.096;5.214;2024-02-16T05:42:47;1.90;;;1.00;;
84903;SDS011;75168;52.096;5.214;2024-02-16T05:45:14;1.75;;;1.20;;
84903;SDS011;75168;52.096;5.214;2024-02-16T05:47:40;1.95;;;0.88;;
84903;SDS011;75168;52.096;5.214;2024-02-16T05:50:10;2.72;;;1.60;;
84903;SDS011;75168;52.096;5.214;2024-02-16T05:52:37;2.45;;;1.15;;
84903;SDS011;75168;52.096;5.214;2024-02-16T05:55:03;2.28;;;1.52;;
84903;SDS011;75168;52.096;5.214;2024-02-16T05:57:29;2.40;;;1.42;;
84903;SDS011;75168;52.096;5.214;2024-02-16T05:59:54;2.75;;;1.52;;
84903;SDS011;75168;52.096;5.214;2024-02-16T06:02:20;1.67;;;1.00;;
84903;SDS011;75168;52.096;5.214;2024-02-16T06:04:46;1.85;;;1.10;;
84903;SDS011;75168;52.096;5.214;2024-02-16T06:07:11;1.58;;;0.82;;
84903;SDS011;75168;52.096;5.214;2024-02-16T06:09:37;2.00;;;0.80;;
84903;SDS011;75168;52.096;5.214;2024-02-16T06:12:03;1.92;;;1.02;;
84903;SDS011;75168;52.096;5.214;2024-02-16T06:14:32;2.25;;;1.55;;
84903;SDS011;75168;52.096;5.214;2024-02-16T06:16:59;2.53;;;1.52;;
84903;SDS011;75168;52.096;5.214;2024-02-16T06:19:25;1.60;;;0.80;;
84903;SDS011;75168;52.096;5.214;2024-02-16T06:21:51;3.80;;;1.42;;
84903;SDS011;75168;52.096;5.214;2024-02-16T06:24:16;2.13;;;1.20;;
84903;SDS011;75168;52.096;5.214;2024-02-16T06:26:42;1.92;;;1.20;;
84903;SDS011;75168;52.096;5.214;2024-02-16T06:29:08;2.67;;;1.80;;
84903;SDS011;75168;52.096;5.214;2024-02-16T06:31:34;2.65;;;1.67;;
84903;SDS011;75168;52.096;5.214;2024-02-16T06:33:59;2.00;;;0.82;;
84903;SDS011;75168;52.096;5.214;2024-02-16T06:36:24;2.25;;;1.52;;
84903;SDS011;75168;52.096;5.214;2024-02-16T06:38:50;2.33;;;1.70;;
84903;SDS011;75168;52.096;5.214;2024-02-16T06:41:16;2.15;;;1.10;;
84903;SDS011;75168;52.096;5.214;2024-02-16T06:43:42;1.80;;;1.40;;
84903;SDS011;75168;52.096;5.214;2024-02-16T06:46:08;1.58;;;1.20;;
84903;SDS011;75168;52.096;5.214;2024-02-16T06:48:33;1.80;;;1.20;;
84903;SDS011;75168;52.096;5.214;2024-02-16T06:50:59;1.75;;;1.27;;
84903;SDS011;75168;52.096;5.214;2024-02-16T06:53:24;2.78;;;1.50;;
84903;SDS011;75168;52.096;5.214;2024-02-16T06:55:49;2.42;;;1.85;;
84903;SDS011;75168;52.096;5.214;2024-02-16T06:58:16;2.40;;;0.90;;
84903;SDS011;75168;52.096;5.214;2024-02-16T07:00:41;1.77;;;0.70;;
84903;SDS011;75168;52.096;5.214;2024-02-16T07:03:07;2.28;;;1.00;;
84903;SDS011;75168;52.096;5.214;2024-02-16T07:05:33;2.38;;;0.90;;
84903;SDS011;75168;52.096;5.214;2024-02-16T07:07:59;2.67;;;1.63;;
84903;SDS011;75168;52.096;5.214;2024-02-16T07:10:25;1.95;;;0.80;;
84903;SDS011;75168;52.096;5.214;2024-02-16T07:12:50;2.42;;;1.42;;
84903;SDS011;75168;52.096;5.214;2024-02-16T07:15:15;2.05;;;0.80;;
84903;SDS011;75168;52.096;5.214;2024-02-16T07:17:41;2.05;;;0.85;;
84903;SDS011;75168;52.096;5.214;2024-02-16T07:20:06;2.50;;;1.00;;
84903;SDS011;75168;52.096;5.214;2024-02-16T07:22:32;2.38;;;1.08;;
84903;SDS011;75168;52.096;5.214;2024-02-16T07:24:58;3.13;;;1.70;;
84903;SDS011;75168;52.096;5.214;2024-02-16T07:27:28;3.10;;;1.70;;
84903;SDS011;75168;52.096;5.214;2024-02-16T07:29:54;1.92;;;1.42;;
84903;SDS011;75168;52.096;5.214;2024-02-16T07:32:19;2.85;;;1.23;;
84903;SDS011;75168;52.096;5.214;2024-02-16T07:34:45;2.20;;;1.45;;
84903;SDS011;75168;52.096;5.214;2024-02-16T07:37:12;2.22;;;1.10;;
84903;SDS011;75168;52.096;5.214;2024-02-16T07:39:38;2.00;;;0.90;;
84903;SDS011;75168;52.096;5.214;2024-02-16T07:42:16;2.53;;;1.70;;
84903;SDS011;75168;52.096;5.214;2024-02-16T07:44:55;2.03;;;0.80;;
84903;SDS011;75168;52.096;5.214;2024-02-16T07:47:20;2.00;;;1.50;;
84903;SDS011;75168;52.096;5.214;2024-02-16T07:49:46;2.25;;;1.10;;
84903;SDS011;75168;52.096;5.214;2024-02-16T07:52:11;2.80;;;1.70;;
84903;SDS011;75168;52.096;5.214;2024-02-16T07:54:37;2.13;;;1.40;;
84903;SDS011;75168;52.096;5.214;2024-02-16T07:57:02;1.63;;;0.77;;
84903;SDS011;75168;52.096;5.214;2024-02-16T07:59:29;2.90;;;1.88;;
84903;SDS011;75168;52.096;5.214;2024-02-16T08:01:54;3.28;;;0.90;;
84903;SDS011;75168;52.096;5.214;2024-02-16T08:04:20;2.92;;;1.85;;
84903;SDS011;75168;52.096;5.214;2024-02-16T08:06:45;2.47;;;0.95;;
84903;SDS011;75168;52.096;5.214;2024-02-16T08:09:10;2.33;;;1.00;;
84903;SDS011;75168;52.096;5.214;2024-02-16T08:11:36;2.33;;;1.55;;
84903;SDS011;75168;52.096;5.214;2024-02-16T08:14:01;2.10;;;1.65;;
84903;SDS011;75168;52.096;5.214;2024-02-16T08:16:27;2.40;;;1.00;;
84903;SDS011;75168;52.096;5.214;2024-02-16T08:18:53;2.75;;;1.65;;
84903;SDS011;75168;52.096;5.214;2024-02-16T08:21:18;2.53;;;1.40;;
84903;SDS011;75168;52.096;5.214;2024-02-16T08:23:43;3.75;;;1.50;;
84903;SDS011;75168;52.096;5.214;2024-02-16T08:26:09;2.65;;;0.80;;
84903;SDS011;75168;52.096;5.214;2024-02-16T08:28:34;2.25;;;1.55;;
84903;SDS011;75168;52.096;5.214;2024-02-16T08:31:00;3.50;;;1.67;;
84903;SDS011;75168;52.096;5.214;2024-02-16T08:33:25;4.60;;;1.83;;
84903;SDS011;75168;52.096;5.214;2024-02-16T08:35:51;2.60;;;1.02;;
84903;SDS011;75168;52.096;5.214;2024-02-16T08:38:16;3.17;;;0.98;;
84903;SDS011;75168;52.096;5.214;2024-02-16T08:40:42;3.08;;;1.00;;
84903;SDS011;75168;52.096;5.214;2024-02-16T08:43:07;2.42;;;0.80;;
84903;SDS011;75168;52.096;5.214;2024-02-16T08:45:33;2.55;;;1.15;;
84903;SDS011;75168;52.096;5.214;2024-02-16T08:47:59;3.58;;;1.60;;
84903;SDS011;75168;52.096;5.214;2024-02-16T08:50:26;2.72;;;1.10;;
84903;SDS011;75168;52.096;5.214;2024-02-16T08:52:52;3.30;;;1.77;;
84903;SDS011;75168;52.096;5.214;2024-02-16T08:55:17;3.40;;;1.05;;
84903;SDS011;75168;52.096;5.214;2024-02-16T08:57:42;2.00;;;1.65;;
84903;SDS011;75168;52.096;5.214;2024-02-16T09:00:08;3.75;;;1.67;;
84903;SDS011;75168;52.096;5.214;2024-02-16T09:02:34;3.03;;;1.50;;
84903;SDS011;75168;52.096;5.214;2024-02-16T09:05:00;3.42;;;1.10;;
84903;SDS011;75168;52.096;5.214;2024-02-16T09:07:25;1.73;;;0.82;;
84903;SDS011;75168;52.096;5.214;2024-02-16T09:09:51;3.28;;;1.17;;
84903;SDS011;75168;52.096;5.214;2024-02-16T09:12:17;2.75;;;1.13;;
84903;SDS011;75168;52.096;5.214;2024-02-16T09:14:42;2.83;;;1.20;;
84903;SDS011;75168;52.096;5.214;2024-02-16T09:17:07;2.88;;;1.13;;
84903;SDS011;75168;52.096;5.214;2024-02-16T09:19:33;3.75;;;1.00;;
84903;SDS011;75168;52.096;5.214;2024-02-16T09:21:59;3.50;;;1.83;;
84903;SDS011;75168;52.096;5.214;2024-02-16T09:24:27;3.30;;;1.50;;
84903;SDS011;75168;52.096;5.214;2024-02-16T09:26:54;2.72;;;1.10;;
84903;SDS011;75168;52.096;5.214;2024-02-16T09:29:20;2.40;;;1.10;;
84903;SDS011;75168;52.096;5.214;2024-02-16T09:31:48;2.92;;;0.95;;
84903;SDS011;75168;52.096;5.214;2024-02-16T09:34:15;11.07;;;2.10;;
84903;SDS011;75168;52.096;5.214;2024-02-16T09:36:41;3.78;;;1.17;;
84903;SDS011;75168;52.096;5.214;2024-02-16T09:39:07;2.35;;;1.80;;
84903;SDS011;75168;52.096;5.214;2024-02-16T09:41:34;3.85;;;1.25;;
84903;SDS011;75168;52.096;5.214;2024-02-16T09:44:03;4.60;;;1.23;;
84903;SDS011;75168;52.096;5.214;2024-02-16T09:46:29;2.50;;;1.10;;
84903;SDS011;75168;52.096;5.214;2024-02-16T09:48:55;3.40;;;1.20;;
84903;SDS011;75168;52.096;5.214;2024-02-16T09:51:22;2.60;;;1.20;;
84903;SDS011;75168;52.096;5.214;2024-02-16T09:53:49;3.20;;;1.30;;
84903;SDS011;75168;52.096;5.214;2024-02-16T09:56:20;2.38;;;1.20;;
84903;SDS011;75168;52.096;5.214;2024-02-16T09:58:46;3.60;;;1.90;;
84903;SDS011;75168;52.096;5.214;2024-02-16T10:01:17;4.15;;;1.30;;
84903;SDS011;75168;52.096;5.214;2024-02-16T10:03:46;3.42;;;2.00;;
84903;SDS011;75168;52.096;5.214;2024-02-16T10:06:12;2.88;;;1.38;;
84903;SDS011;75168;52.096;5.214;2024-02-16T10:11:15;4.78;;;1.83;;
84903;SDS011;75168;52.096;5.214;2024-02-16T10:13:41;3.47;;;1.50;;
84903;SDS011;75168;52.096;5.214;2024-02-16T10:16:06;3.47;;;1.30;;
84903;SDS011;75168;52.096;5.214;2024-02-16T10:18:37;2.88;;;1.55;;
84903;SDS011;75168;52.096;5.214;2024-02-16T10:21:03;3.28;;;1.40;;
84903;SDS011;75168;52.096;5.214;2024-02-16T10:23:29;2.53;;;1.20;;
84903;SDS011;75168;52.096;5.214;2024-02-16T10:25:54;4.57;;;2.22;;
84903;SDS011;75168;52.096;5.214;2024-02-16T10:28:20;4.57;;;2.33;;
84903;SDS011;75168;52.096;5.214;2024-02-16T10:30:52;4.15;;;2.33;;
84903;SDS011;75168;52.096;5.214;2024-02-16T10:33:22;4.03;;;2.15;;
84903;SDS011;75168;52.096;5.214;2024-02-16T10:35:49;3.95;;;1.63;;
84903;SDS011;75168;52.096;5.214;2024-02-16T10:38:15;6.15;;;2.42;;
84903;SDS011;75168;52.096;5.214;2024-02-16T10:40:41;6.03;;;1.58;;
84903;SDS011;75168;52.096;5.214;2024-02-16T10:43:07;4.32;;;2.63;;
84903;SDS011;75168;52.096;5.214;2024-02-16T10:45:35;3.38;;;1.42;;
84903;SDS011;75168;52.096;5.214;2024-02-16T10:48:01;4.38;;;2.00;;
84903;SDS011;75168;52.096;5.214;2024-02-16T10:50:27;4.72;;;2.55;;
84903;SDS011;75168;52.096;5.214;2024-02-16T10:52:53;4.05;;;1.70;;
84903;SDS011;75168;52.096;5.214;2024-02-16T10:55:21;3.05;;;2.00;;
84903;SDS011;75168;52.096;5.214;2024-02-16T10:57:49;5.70;;;1.52;;
84903;SDS011;75168;52.096;5.214;2024-02-16T11:00:15;3.08;;;1.48;;
84903;SDS011;75168;52.096;5.214;2024-02-16T11:02:55;3.17;;;1.40;;
84903;SDS011;75168;52.096;5.214;2024-02-16T11:05:36;3.70;;;1.42;;
84903;SDS011;75168;52.096;5.214;2024-02-16T11:08:11;2.97;;;2.25;;
84903;SDS011;75168;52.096;5.214;2024-02-16T11:10:38;2.78;;;1.48;;
84903;SDS011;75168;52.096;5.214;2024-02-16T11:13:04;3.47;;;1.52;;
84903;SDS011;75168;52.096;5.214;2024-02-16T11:15:33;2.70;;;1.38;;
84903;SDS011;75168;52.096;5.214;2024-02-16T11:18:03;3.53;;;1.23;;
84903;SDS011;75168;52.096;5.214;2024-02-16T11:20:36;4.00;;;2.10;;
84903;SDS011;75168;52.096;5.214;2024-02-16T11:23:08;3.10;;;1.50;;
84903;SDS011;75168;52.096;5.214;2024-02-16T11:25:34;4.50;;;1.60;;
84903;SDS011;75168;52.096;5.214;2024-02-16T11:28:01;3.85;;;1.40;;
84903;SDS011;75168;52.096;5.214;2024-02-16T11:30:28;3.88;;;1.55;;
84903;SDS011;75168;52.096;5.214;2024-02-16T11:32:53;6.78;;;2.75;;
84903;SDS011;75168;52.096;5.214;2024-02-16T11:35:18;4.30;;;2.20;;
84903;SDS011;75168;52.096;5.214;2024-02-16T11:37:44;5.00;;;1.50;;
84903;SDS011;75168;52.096;5.214;2024-02-16T11:40:12;4.72;;;1.90;;
84903;SDS011;75168;52.096;5.214;2024-02-16T11:42:37;3.97;;;2.25;;
84903;SDS011;75168;52.096;5.214;2024-02-16T11:45:03;4.13;;;2.58;;
84903;SDS011;75168;52.096;5.214;2024-02-16T11:47:29;3.85;;;2.22;;
84903;SDS011;75168;52.096;5.214;2024-02-16T11:50:01;4.80;;;1.65;;
84903;SDS011;75168;52.096;5.214;2024-02-16T11:52:36;3.45;;;1.30;;
84903;SDS011;75168;52.096;5.214;2024-02-16T11:55:03;3.40;;;2.30;;
84903;SDS011;75168;52.096;5.214;2024-02-16T11:57:33;6.07;;;2.50;;
84903;SDS011;75168;52.096;5.214;2024-02-16T12:00:00;3.42;;;1.60;;
84903;SDS011;75168;52.096;5.214;2024-02-16T12:02:29;4.40;;;1.60;;
84903;SDS011;75168;52.096;5.214;2024-02-16T12:04:58;4.45;;;1.95;;
84903;SDS011;75168;52.096;5.214;2024-02-16T12:07:27;5.25;;;2.80;;
84903;SDS011;75168;52.096;5.214;2024-02-16T12:10:01;3.83;;;1.63;;
84903;SDS011;75168;52.096;5.214;2024-02-16T12:12:30;5.03;;;2.63;;
84903;SDS011;75168;52.096;5.214;2024-02-16T12:14:56;6.68;;;2.55;;
84903;SDS011;75168;52.096;5.214;2024-02-16T12:17:22;3.00;;;1.90;;
84903;SDS011;75168;52.096;5.214;2024-02-16T12:19:49;3.70;;;2.00;;
84903;SDS011;75168;52.096;5.214;2024-02-16T12:22:22;3.95;;;2.28;;
84903;SDS011;75168;52.096;5.214;2024-02-16T12:24:49;4.03;;;1.83;;
84903;SDS011;75168;52.096;5.214;2024-02-16T12:27:15;5.05;;;1.92;;
84903;SDS011;75168;52.096;5.214;2024-02-16T12:29:41;2.90;;;1.45;;
84903;SDS011;75168;52.096;5.214;2024-02-16T12:32:06;4.53;;;2.40;;
84903;SDS011;75168;52.096;5.214;2024-02-16T12:34:34;4.30;;;2.60;;
84903;SDS011;75168;52.096;5.214;2024-02-16T12:40:08;5.57;;;2.53;;
84903;SDS011;75168;52.096;5.214;2024-02-16T12:42:34;6.45;;;3.05;;
84903;SDS011;75168;52.096;5.214;2024-02-16T12:44:59;5.88;;;2.70;;
84903;SDS011;75168;52.096;5.214;2024-02-16T12:47:25;5.90;;;3.08;;
84903;SDS011;75168;52.096;5.214;2024-02-16T12:49:50;6.72;;;2.80;;
84903;SDS011;75168;52.096;5.214;2024-02-16T12:52:20;9.55;;;3.63;;
84903;SDS011;75168;52.096;5.214;2024-02-16T12:54:48;7.10;;;2.90;;
84903;SDS011;75168;52.096;5.214;2024-02-16T12:57:14;4.82;;;2.65;;
84903;SDS011;75168;52.096;5.214;2024-02-16T12:59:39;8.35;;;3.13;;
84903;SDS011;75168;52.096;5.214;2024-02-16T13:02:04;10.50;;;2.92;;
84903;SDS011;75168;52.096;5.214;2024-02-16T13:04:30;9.02;;;2.88;;
84903;SDS011;75168;52.096;5.214;2024-02-16T13:06:57;5.95;;;2.70;;
84903;SDS011;75168;52.096;5.214;2024-02-16T13:09:23;6.25;;;2.83;;
84903;SDS011;75168;52.096;5.214;2024-02-16T13:11:48;6.03;;;2.47;;
84903;SDS011;75168;52.096;5.214;2024-02-16T13:14:19;5.13;;;3.10;;
84903;SDS011;75168;52.096;5.214;2024-02-16T13:16:47;5.57;;;2.50;;
84903;SDS011;75168;52.096;5.214;2024-02-16T13:19:13;7.78;;;3.05;;
84903;SDS011;75168;52.096;5.214;2024-02-16T13:21:38;6.38;;;2.42;;
84903;SDS011;75168;52.096;5.214;2024-02-16T13:24:05;6.72;;;2.75;;
84903;SDS011;75168;52.096;5.214;2024-02-16T13:26:31;6.15;;;2.70;;
84903;SDS011;75168;52.096;5.214;2024-02-16T13:28:56;5.25;;;2.65;;
84903;SDS011;75168;52.096;5.214;2024-02-16T13:31:22;5.97;;;2.83;;
84903;SDS011;75168;52.096;5.214;2024-02-16T13:33:48;5.45;;;2.70;;
84903;SDS011;75168;52.096;5.214;2024-02-16T13:36:14;5.72;;;2.55;;
84903;SDS011;75168;52.096;5.214;2024-02-16T13:38:39;6.22;;;2.58;;
84903;SDS011;75168;52.096;5.214;2024-02-16T13:41:05;5.10;;;2.53;;
84903;SDS011;75168;52.096;5.214;2024-02-16T13:43:30;5.47;;;2.50;;
84903;SDS011;75168;52.096;5.214;2024-02-16T13:45:56;4.53;;;2.25;;
84903;SDS011;75168;52.096;5.214;2024-02-16T13:48:23;3.70;;;2.10;;
84903;SDS011;75168;52.096;5.214;2024-02-16T13:50:49;4.75;;;2.58;;
84903;SDS011;75168;52.096;5.214;2024-02-16T13:53:15;4.10;;;2.10;;
84903;SDS011;75168;52.096;5.214;2024-02-16T13:55:42;5.10;;;2.85;;
84903;SDS011;75168;52.096;5.214;2024-02-16T13:58:11;5.68;;;2.45;;
84903;SDS011;75168;52.096;5.214;2024-02-16T14:00:37;5.75;;;2.40;;
84903;SDS011;75168;52.096;5.214;2024-02-16T14:03:04;5.43;;;2.42;;
84903;SDS011;75168;52.096;5.214;2024-02-16T14:05:34;5.10;;;2.15;;
84903;SDS011;75168;52.096;5.214;2024-02-16T14:08:00;5.15;;;2.35;;
84903;SDS011;75168;52.096;5.214;2024-02-16T14:10:28;6.28;;;2.55;;
84903;SDS011;75168;52.096;5.214;2024-02-16T14:12:54;4.07;;;2.40;;
84903;SDS011;75168;52.096;5.214;2024-02-16T14:15:19;6.38;;;2.13;;
84903;SDS011;75168;52.096;5.214;2024-02-16T14:17:45;4.63;;;2.55;;
84903;SDS011;75168;52.096;5.214;2024-02-16T14:20:10;4.78;;;2.17;;
84903;SDS011;75168;52.096;5.214;2024-02-16T14:22:36;5.47;;;2.17;;
84903;SDS011;75168;52.096;5.214;2024-02-16T14:25:02;3.88;;;2.25;;
84903;SDS011;75168;52.096;5.214;2024-02-16T14:27:28;4.15;;;2.33;;
84903;SDS011;75168;52.096;5.214;2024-02-16T14:29:54;4.10;;;2.10;;
84903;SDS011;75168;52.096;5.214;2024-02-16T14:32:20;4.43;;;2.30;;
84903;SDS011;75168;52.096;5.214;2024-02-16T14:34:45;4.80;;;2.10;;
84903;SDS011;75168;52.096;5.214;2024-02-16T14:37:11;4.05;;;2.33;;
84903;SDS011;75168;52.096;5.214;2024-02-16T14:39:36;4.22;;;2.35;;
84903;SDS011;75168;52.096;5.214;2024-02-16T14:42:02;5.95;;;2.35;;
84903;SDS011;75168;52.096;5.214;2024-02-16T14:44:27;5.88;;;2.33;;
84903;SDS011;75168;52.096;5.214;2024-02-16T14:46:53;5.07;;;2.28;;
84903;SDS011;75168;52.096;5.214;2024-02-16T14:49:18;5.10;;;2.15;;
84903;SDS011;75168;52.096;5.214;2024-02-16T14:51:49;5.63;;;2.10;;
84903;SDS011;75168;52.096;5.214;2024-02-16T14:56:40;5.80;;;2.03;;